Time;durP1;ratioP1;P1;durP2;ratioP2;P2;SDS_P1;SDS_P2;PMS_P1;PMS_P2;Temp;Humidity;BMP_temperature;BMP_pressure;BME280_temperature;BME280_humidity;BME280_pressure;Samples;Min_cycle;Max_cycle;Signal;HPM_P1;HPM_P2
2021/05/26 00:00:29;;;;;;;;;;;9.30;99.90;;;;;;6071394;23;19922;-77
2021/05/26 00:02:56;;;;;;;;;;;9.20;99.90;;;;;;6118936;23;19964;-77
2021/05/26 00:05:23;;;;;;;;;;;9.20;99.90;;;;;;6094274;23;19925;-77
2021/05/26 00:07:50;;;;;;;;;;;9.20;99.90;;;;;;6070631;23;20097;-77
2021/05/26 00:10:21;;;;;;;;;;;9.10;99.90;;;;;;6117736;23;19922;-77
2021/05/26 00:12:48;;;;;;;;;;;9.10;99.90;;;;;;6094174;23;19956;-77
2021/05/26 00:15:15;;;;;;;;;;;9.00;99.90;;;;;;6119013;23;19921;-77
2021/05/26 00:17:42;;;;;;;;;;;9.00;99.90;;;;;;6118663;23;19963;-77
2021/05/26 00:20:14;;;;;;;;;;;9.00;99.90;;;;;;6093915;23;20351;-77
2021/05/26 00:22:40;;;;;;;;;;;9.00;99.90;;;;;;6118717;23;19925;-77
2021/05/26 00:25:07;;;;;;;;;;;8.90;99.90;;;;;;6118879;23;19921;-77
2021/05/26 00:27:39;;;;;;;;;;;8.90;99.90;;;;;;6071601;23;19944;-77
2021/05/26 00:30:06;;;;;;;;;;;8.90;99.90;;;;;;6118493;23;20259;-77
2021/05/26 00:32:33;;;;;;;;;;;8.90;99.90;;;;;;6094003;23;19957;-77
2021/05/26 00:34:59;;;;;;;;;;;8.90;99.90;;;;;;6118538;23;19959;-77
2021/05/26 00:37:31;;;;;;;;;;;9.00;99.90;;;;;;6094399;23;19952;-77
2021/05/26 00:39:58;;;;;;;;;;;8.90;99.90;;;;;;6070601;23;19921;-77
2021/05/26 00:42:30;;;;;;;;;;;8.90;99.90;;;;;;6095999;23;20004;-77
2021/05/26 00:44:57;;;;;;;;;;;9.00;99.90;;;;;;6094201;23;19925;-77
2021/05/26 00:47:41;;;;;;;;;;;9.00;99.90;;;;;;6094188;23;19921;-77
2021/05/26 00:50:22;;;;;;;;;;;9.10;99.90;;;;;;6070995;23;20004;-77
2021/05/26 00:52:53;;;;;;;;;;;9.20;99.90;;;;;;6118652;23;19971;-77
2021/05/26 00:55:25;;;;;;;;;;;9.20;99.90;;;;;;6094201;23;19921;-77
2021/05/26 00:57:53;;;;;;;;;;;9.20;99.90;;;;;;6117384;23;20015;-77
2021/05/26 01:00:26;;;;;;;;;;;9.30;99.90;;;;;;6116754;23;20051;-77
2021/05/26 01:02:59;;;;;;;;;;;9.30;99.90;;;;;;6118178;23;19921;-76
2021/05/26 01:05:32;;;;;;;;;;;9.30;99.90;;;;;;6093142;23;19922;-77
2021/05/26 01:08:04;;;;;;;;;;;9.30;99.90;;;;;;6116785;23;19921;-77
2021/05/26 01:10:33;;;;;;;;;;;9.30;99.90;;;;;;6093314;23;19921;-77
2021/05/26 01:13:11;;;;;;;;;;;9.30;99.90;;;;;;6117778;23;19944;-77
2021/05/26 01:15:43;;;;;;;;;;;9.40;99.90;;;;;;6093425;23;19925;-77
2021/05/26 01:18:17;;;;;;;;;;;9.40;99.90;;;;;;6126905;23;19928;-78
2021/05/26 01:20:44;;;;;;;;;;;9.30;99.90;;;;;;6106311;23;19945;-77
2021/05/26 01:23:17;;;;;;;;;;;9.30;99.90;;;;;;6082524;23;19921;-77
2021/05/26 01:25:51;;;;;;;;;;;9.30;99.90;;;;;;6123873;23;19922;-77
2021/05/26 01:28:24;;;;;;;;;;;9.30;99.90;;;;;;6118411;23;20008;-77
2021/05/26 01:30:51;;;;;;;;;;;9.20;99.90;;;;;;6118094;23;19922;-77
2021/05/26 01:33:19;;;;;;;;;;;9.20;99.90;;;;;;6118411;23;20366;-77
2021/05/26 01:35:47;;;;;;;;;;;9.30;99.90;;;;;;6070784;23;19992;-77
2021/05/26 01:38:21;;;;;;;;;;;9.30;99.90;;;;;;6094011;23;20011;-77
2021/05/26 01:40:48;;;;;;;;;;;9.30;99.90;;;;;;6117567;23;19928;-77
2021/05/26 01:43:22;;;;;;;;;;;9.30;99.90;;;;;;6093179;23;20339;-77
2021/05/26 01:45:50;;;;;;;;;;;9.20;99.90;;;;;;6117798;23;19927;-77
2021/05/26 01:48:18;;;;;;;;;;;9.20;99.90;;;;;;6118467;23;20165;-77
2021/05/26 01:50:50;;;;;;;;;;;9.20;99.90;;;;;;6094884;23;20347;-77
2021/05/26 01:53:17;;;;;;;;;;;9.30;99.90;;;;;;6095731;23;20021;-77
2021/05/26 01:55:49;;;;;;;;;;;9.30;99.90;;;;;;6095794;23;20040;-77
2021/05/26 01:58:16;;;;;;;;;;;9.20;99.90;;;;;;6095580;23;20359;-77
2021/05/26 02:00:47;;;;;;;;;;;9.20;99.90;;;;;;6119136;23;19921;-77
2021/05/26 02:03:13;;;;;;;;;;;9.20;99.90;;;;;;6095602;23;19989;-77
2021/05/26 02:05:40;;;;;;;;;;;9.20;99.90;;;;;;6071768;23;19921;-77
2021/05/26 02:08:07;;;;;;;;;;;9.20;99.90;;;;;;6095792;23;19922;-77
2021/05/26 02:13:19;;;;;;;;;;;9.20;99.90;;;;;;6095490;23;19928;-77
2021/05/26 02:15:52;;;;;;;;;;;9.20;99.90;;;;;;6120346;23;19960;-77
2021/05/26 02:18:20;;;;;;;;;;;9.10;99.90;;;;;;6095552;23;19972;-77
2021/05/26 02:20:52;;;;;;;;;;;9.10;99.90;;;;;;6119523;23;20382;-77
2021/05/26 02:23:18;;;;;;;;;;;9.20;99.90;;;;;;6119823;23;19925;-77
2021/05/26 02:25:45;;;;;;;;;;;9.20;99.90;;;;;;6095548;23;20319;-77
2021/05/26 02:28:17;;;;;;;;;;;9.20;99.90;;;;;;6095644;23;19953;-77
2021/05/26 02:30:43;;;;;;;;;;;9.30;99.90;;;;;;6119754;23;20290;-77
2021/05/26 02:33:10;;;;;;;;;;;9.30;99.90;;;;;;6095067;23;20410;-77
2021/05/26 02:35:39;;;;;;;;;;;9.30;99.90;;;;;;6095723;23;19996;-77
2021/05/26 02:38:06;;;;;;;;;;;9.30;99.90;;;;;;6095326;23;19922;-77
2021/05/26 02:40:33;;;;;;;;;;;9.30;99.90;;;;;;6119685;23;19921;-77
2021/05/26 02:43:16;;;;;;;;;;;9.20;99.90;;;;;;6095776;23;19996;-77
2021/05/26 02:45:43;;;;;;;;;;;9.20;99.90;;;;;;6071358;23;20299;-77
2021/05/26 02:48:10;;;;;;;;;;;9.20;99.90;;;;;;6119616;23;20004;-77
2021/05/26 02:50:39;;;;;;;;;;;9.20;99.90;;;;;;6095037;23;20386;-77
2021/05/26 02:53:06;;;;;;;;;;;9.20;99.90;;;;;;6119451;23;19921;-77
2021/05/26 02:55:33;;;;;;;;;;;9.20;99.90;;;;;;6071505;23;19960;-77
2021/05/26 02:58:26;;;;;;;;;;;9.20;99.90;;;;;;6103197;23;19925;-77
2021/05/26 03:01:25;;;;;;;;;;;9.10;99.90;;;;;;6094853;23;20410;-77
2021/05/26 03:04:11;;;;;;;;;;;9.10;99.90;;;;;;6080651;23;19922;-77
2021/05/26 03:06:44;;;;;;;;;;;9.00;99.90;;;;;;6094952;23;20316;-77
2021/05/26 03:09:11;;;;;;;;;;;9.00;99.90;;;;;;6071216;23;19928;-77
2021/05/26 03:11:40;;;;;;;;;;;9.00;99.90;;;;;;6095070;23;20325;-77
2021/05/26 03:14:22;;;;;;;;;;;8.90;99.90;;;;;;6099858;23;19928;-77
2021/05/26 03:16:58;;;;;;;;;;;8.90;99.90;;;;;;6124135;23;19944;-77
2021/05/26 03:19:24;;;;;;;;;;;8.90;99.90;;;;;;6124048;23;19929;-77
2021/05/26 03:22:16;;;;;;;;;;;8.90;99.90;;;;;;6139102;23;19921;-77
2021/05/26 03:25:11;;;;;;;;;;;8.80;99.90;;;;;;6113613;23;20000;-77
2021/05/26 03:27:39;;;;;;;;;;;8.80;99.90;;;;;;6099725;23;19928;-77
2021/05/26 03:30:08;;;;;;;;;;;8.80;99.90;;;;;;6123907;23;19925;-77
2021/05/26 03:32:36;;;;;;;;;;;8.80;99.90;;;;;;6124028;23;19928;-77
2021/05/26 03:35:08;;;;;;;;;;;8.80;99.90;;;;;;6124203;23;19928;-77
2021/05/26 03:37:40;;;;;;;;;;;8.70;99.90;;;;;;6124135;23;19928;-77
2021/05/26 03:40:11;;;;;;;;;;;8.70;99.90;;;;;;6099322;23;19960;-77
2021/05/26 03:42:39;;;;;;;;;;;8.70;99.90;;;;;;6123809;23;19953;-77
2021/05/26 03:45:25;;;;;;;;;;;8.70;99.90;;;;;;6124409;23;20008;-77
2021/05/26 03:47:57;;;;;;;;;;;8.80;99.90;;;;;;6124159;23;20004;-77
2021/05/26 03:50:24;;;;;;;;;;;8.80;99.90;;;;;;6098554;23;19929;-77
2021/05/26 03:52:51;;;;;;;;;;;8.90;99.90;;;;;;6123418;23;19921;-77
2021/05/26 03:55:24;;;;;;;;;;;9.00;99.90;;;;;;6123287;23;19956;-77
2021/05/26 03:57:57;;;;;;;;;;;9.00;99.90;;;;;;6098626;23;19921;-77
2021/05/26 04:00:25;;;;;;;;;;;9.10;99.90;;;;;;6098267;23;19931;-77
2021/05/26 04:03:08;;;;;;;;;;;9.20;99.90;;;;;;6098626;23;20306;-77
2021/05/26 04:05:35;;;;;;;;;;;9.20;99.90;;;;;;6122917;23;19951;-77
2021/05/26 04:08:02;;;;;;;;;;;9.30;99.90;;;;;;6123015;23;19951;-77
2021/05/26 04:10:31;;;;;;;;;;;9.30;99.90;;;;;;6122626;23;19928;-77
2021/05/26 04:13:08;;;;;;;;;;;9.30;99.90;;;;;;6122918;23;20303;-77
2021/05/26 04:15:43;;;;;;;;;;;9.30;99.90;;;;;;6123085;23;20350;-76
2021/05/26 04:18:28;;;;;;;;;;;9.40;99.90;;;;;;6123152;23;19928;-76
2021/05/26 04:21:00;;;;;;;;;;;9.40;99.90;;;;;;6122870;23;19921;-76
2021/05/26 04:23:26;;;;;;;;;;;9.40;99.90;;;;;;6130777;23;19920;-77
2021/05/26 04:26:01;;;;;;;;;;;9.50;99.90;;;;;;6133134;23;19956;-76
2021/05/26 04:28:28;;;;;;;;;;;9.50;99.90;;;;;;6129702;23;19952;-76
2021/05/26 04:30:55;;;;;;;;;;;9.50;99.90;;;;;;6124433;23;19921;-76
2021/05/26 04:33:28;;;;;;;;;;;9.60;99.90;;;;;;6123345;23;19921;-76
2021/05/26 04:35:55;;;;;;;;;;;9.50;99.90;;;;;;6099216;23;20266;-76
2021/05/26 04:38:26;;;;;;;;;;;9.60;99.90;;;;;;6123186;23;19927;-76
2021/05/26 04:40:53;;;;;;;;;;;9.50;99.90;;;;;;6123175;23;20323;-76
2021/05/26 04:43:20;;;;;;;;;;;9.50;99.90;;;;;;6123849;23;20401;-76
2021/05/26 04:45:52;;;;;;;;;;;9.60;99.90;;;;;;6123299;23;20335;-76
2021/05/26 04:48:23;;;;;;;;;;;9.60;99.90;;;;;;6099266;23;19928;-76
2021/05/26 04:50:50;;;;;;;;;;;9.60;99.90;;;;;;6123161;23;19953;-76
2021/05/26 04:53:21;;;;;;;;;;;9.60;99.90;;;;;;6123743;23;20019;-76
2021/05/26 04:55:48;;;;;;;;;;;9.60;99.90;;;;;;6123566;23;19921;-77
2021/05/26 04:58:20;;;;;;;;;;;9.60;99.90;;;;;;6123245;23;19920;-76
2021/05/26 05:00:47;;;;;;;;;;;9.60;99.90;;;;;;6123217;23;19948;-77
2021/05/26 05:03:13;;;;;;;;;;;9.60;99.90;;;;;;6123045;23;19921;-76
2021/05/26 05:05:40;;;;;;;;;;;9.60;99.90;;;;;;6099016;23;19932;-76
2021/05/26 05:08:12;;;;;;;;;;;9.60;99.90;;;;;;6123297;23;20004;-76
2021/05/26 05:10:38;;;;;;;;;;;9.60;99.90;;;;;;6123014;23;19963;-76
2021/05/26 05:13:05;;;;;;;;;;;9.60;99.90;;;;;;6098443;23;19956;-76
2021/05/26 05:15:32;;;;;;;;;;;9.70;99.90;;;;;;6122989;23;20306;-76
2021/05/26 05:17:59;;;;;;;;;;;9.60;99.90;;;;;;6121137;23;19921;-76
2021/05/26 05:20:31;;;;;;;;;;;9.70;99.90;;;;;;6122719;23;19952;-76
2021/05/26 05:22:57;;;;;;;;;;;9.70;99.90;;;;;;6099824;23;19953;-76
2021/05/26 05:25:24;;;;;;;;;;;9.60;99.90;;;;;;6125128;23;20378;-77
2021/05/26 05:27:56;;;;;;;;;;;9.60;99.90;;;;;;6124999;23;19963;-76
2021/05/26 05:30:23;;;;;;;;;;;9.70;99.90;;;;;;6124884;23;19972;-76
2021/05/26 05:32:50;;;;;;;;;;;9.70;99.90;;;;;;6099933;23;19921;-77
2021/05/26 05:35:17;;;;;;;;;;;9.70;99.90;;;;;;6125343;23;20427;-77
2021/05/26 05:37:48;;;;;;;;;;;9.70;99.90;;;;;;6124809;23;19921;-77
2021/05/26 05:40:15;;;;;;;;;;;9.70;99.90;;;;;;6124064;23;19925;-77
2021/05/26 05:42:42;;;;;;;;;;;9.70;99.90;;;;;;6099929;23;19959;-76
2021/05/26 05:45:09;;;;;;;;;;;9.70;99.90;;;;;;6124612;23;20373;-77
2021/05/26 05:47:36;;;;;;;;;;;9.70;99.90;;;;;;6121800;23;19953;-77
2021/05/26 05:50:15;;;;;;;;;;;9.70;99.90;;;;;;6102086;23;20004;-77
2021/05/26 05:52:49;;;;;;;;;;;9.80;99.90;;;;;;6100404;23;19952;-77
2021/05/26 05:55:16;;;;;;;;;;;9.80;99.90;;;;;;6098984;23;19921;-76
2021/05/26 05:57:43;;;;;;;;;;;9.80;99.90;;;;;;6115520;23;19959;-76
2021/05/26 06:00:15;;;;;;;;;;;9.90;99.90;;;;;;6121151;23;19952;-76
2021/05/26 06:02:47;;;;;;;;;;;9.90;99.90;;;;;;6095685;23;19949;-76
2021/05/26 06:05:19;;;;;;;;;;;9.90;99.90;;;;;;6115661;23;19952;-76
2021/05/26 06:07:46;;;;;;;;;;;10.00;99.90;;;;;;6098248;23;19956;-76
2021/05/26 06:10:13;;;;;;;;;;;10.00;99.90;;;;;;6121685;23;19925;-76
2021/05/26 06:12:40;;;;;;;;;;;10.10;99.90;;;;;;6124080;23;20004;-76
2021/05/26 06:15:07;;;;;;;;;;;10.10;99.90;;;;;;6099792;23;19956;-76
2021/05/26 06:17:34;;;;;;;;;;;10.20;99.90;;;;;;6120383;23;19972;-76
2021/05/26 06:20:07;;;;;;;;;;;10.30;99.90;;;;;;6120194;23;19921;-76
2021/05/26 06:22:34;;;;;;;;;;;10.40;99.90;;;;;;6120034;23;19921;-76
2021/05/26 06:25:01;;;;;;;;;;;10.50;99.90;;;;;;6099567;23;19952;-76
2021/05/26 06:27:28;;;;;;;;;;;10.50;99.90;;;;;;6099149;23;19921;-77
2021/05/26 06:29:57;;;;;;;;;;;10.60;99.90;;;;;;6101001;23;19925;-80
2021/05/26 06:32:24;;;;;;;;;;;10.60;99.90;;;;;;6124949;23;19929;-79
2021/05/26 06:34:56;;;;;;;;;;;10.70;99.90;;;;;;6099503;23;19921;-79
2021/05/26 06:37:45;;;;;;;;;;;10.70;99.90;;;;;;6119869;23;19928;-79
2021/05/26 06:40:31;;;;;;;;;;;10.80;99.90;;;;;;6123239;23;19921;-78
2021/05/26 06:42:58;;;;;;;;;;;10.80;99.90;;;;;;6123797;23;19972;-78
2021/05/26 06:45:25;;;;;;;;;;;10.80;99.90;;;;;;6099757;23;19925;-78
2021/05/26 06:47:52;;;;;;;;;;;10.80;99.90;;;;;;6124851;23;20239;-78
2021/05/26 06:50:19;;;;;;;;;;;10.90;99.90;;;;;;6100377;23;19921;-77
2021/05/26 06:53:06;;;;;;;;;;;10.90;99.90;;;;;;6124613;23;19925;-77
2021/05/26 06:55:46;;;;;;;;;;;10.90;99.90;;;;;;6099830;23;19925;-78
2021/05/26 06:58:13;;;;;;;;;;;11.00;99.90;;;;;;6124869;23;19921;-78
2021/05/26 07:00:41;;;;;;;;;;;11.00;99.90;;;;;;6124654;23;19972;-79
2021/05/26 07:03:09;;;;;;;;;;;11.00;99.90;;;;;;6101670;23;20331;-80
2021/05/26 07:05:46;;;;;;;;;;;11.10;99.90;;;;;;6126435;23;20003;-79
2021/05/26 07:08:39;;;;;;;;;;;;;;;;;;;;;
2021/05/26 07:17:06;;;;;;;;;;;11.40;99.90;;;;;;6188878;22;19920;-80
2021/05/26 07:19:39;;;;;;;;;;;11.50;99.90;;;;;;6162210;23;19947;-81
2021/05/26 07:22:09;;;;;;;;;;;11.50;99.90;;;;;;6156525;23;19921;-81
2021/05/26 07:24:37;;;;;;;;;;;11.50;99.90;;;;;;6155731;23;19927;-81
2021/05/26 07:27:04;;;;;;;;;;;11.60;99.90;;;;;;6180950;23;19925;-81
2021/05/26 07:29:32;;;;;;;;;;;11.60;99.90;;;;;;6156834;23;19920;-82
2021/05/26 07:31:59;;;;;;;;;;;11.60;99.90;;;;;;6188056;23;19925;-82
2021/05/26 07:34:32;;;;;;;;;;;11.70;99.90;;;;;;6146718;23;19960;-83
2021/05/26 07:36:59;;;;;;;;;;;11.80;99.90;;;;;;6192981;23;19921;-83
2021/05/26 07:39:28;;;;;;;;;;;11.80;99.90;;;;;;6166361;23;19927;-83
2021/05/26 07:41:58;;;;;;;;;;;11.90;99.90;;;;;;6190931;23;19928;-82
2021/05/26 07:44:25;;;;;;;;;;;11.90;99.90;;;;;;6141932;23;19968;-83
2021/05/26 07:46:54;;;;;;;;;;;12.00;99.90;;;;;;6140399;23;19921;-83
2021/05/26 07:49:22;;;;;;;;;;;12.00;99.90;;;;;;6164369;23;19925;-83
2021/05/26 07:51:57;;;;;;;;;;;12.00;99.90;;;;;;6138778;23;19979;-83
2021/05/26 07:54:24;;;;;;;;;;;12.00;99.90;;;;;;6162256;23;19928;-80
2021/05/26 07:56:52;;;;;;;;;;;12.00;99.90;;;;;;6138834;23;19927;-80
2021/05/26 07:59:20;;;;;;;;;;;12.10;99.90;;;;;;6161404;23;19946;-80
2021/05/26 08:01:47;;;;;;;;;;;12.10;99.90;;;;;;6185677;23;19927;-80
2021/05/26 08:04:15;;;;;;;;;;;12.20;99.90;;;;;;6163397;23;20338;-80
2021/05/26 08:06:42;;;;;;;;;;;12.20;99.90;;;;;;6188199;23;19940;-80
2021/05/26 08:09:09;;;;;;;;;;;12.30;99.90;;;;;;6163634;23;19920;-80
2021/05/26 08:11:37;;;;;;;;;;;12.30;99.90;;;;;;6163881;23;19920;-80
2021/05/26 08:14:04;;;;;;;;;;;12.30;99.90;;;;;;6163521;23;20081;-80
2021/05/26 08:16:31;;;;;;;;;;;12.40;99.90;;;;;;6164173;23;19943;-80
2021/05/26 08:18:58;;;;;;;;;;;12.40;99.90;;;;;;6164744;23;19969;-81
2021/05/26 08:21:26;;;;;;;;;;;12.50;99.90;;;;;;6195347;22;20253;-80
2021/05/26 08:23:54;;;;;;;;;;;12.40;99.90;;;;;;6198126;23;20309;-80
2021/05/26 08:26:22;;;;;;;;;;;12.50;99.90;;;;;;6198592;23;19920;-80
2021/05/26 08:28:51;;;;;;;;;;;12.50;99.90;;;;;;6198265;23;19927;-79
2021/05/26 08:31:20;;;;;;;;;;;12.50;99.90;;;;;;6199153;23;19920;-80
2021/05/26 08:33:47;;;;;;;;;;;12.60;99.90;;;;;;6248200;23;19920;-80
2021/05/26 08:36:15;;;;;;;;;;;12.60;99.90;;;;;;6247878;23;19955;-83
2021/05/26 08:38:44;;;;;;;;;;;12.60;99.90;;;;;;6247314;23;19919;-82
2021/05/26 08:44:22;;;;;;;;;;;12.60;99.90;;;;;;6220940;22;20026;-82
2021/05/26 08:46:53;;;;;;;;;;;12.60;99.90;;;;;;6196832;23;20348;-82
2021/05/26 08:49:21;;;;;;;;;;;12.70;99.90;;;;;;6195641;23;19920;-82
2021/05/26 08:51:48;;;;;;;;;;;12.70;99.90;;;;;;6195447;23;19920;-81
2021/05/26 08:54:17;;;;;;;;;;;12.70;99.90;;;;;;6245884;23;19920;-82
2021/05/26 08:56:49;;;;;;;;;;;12.70;99.90;;;;;;6221408;23;19959;-82
2021/05/26 08:59:17;;;;;;;;;;;12.80;99.90;;;;;;6246349;23;19927;-79
2021/05/26 09:01:48;;;;;;;;;;;12.80;99.90;;;;;;6190224;23;19990;-79
2021/05/26 09:04:35;;;;;;;;;;;12.90;99.90;;;;;;6240531;23;19990;-80
2021/05/26 09:07:12;;;;;;;;;;;12.90;99.90;;;;;;6240238;23;20253;-80
2021/05/26 09:09:47;;;;;;;;;;;12.90;99.90;;;;;;6190175;23;19998;-81
2021/05/26 09:12:23;;;;;;;;;;;13.00;99.90;;;;;;6215496;22;19987;-80
2021/05/26 09:15:01;;;;;;;;;;;13.00;99.90;;;;;;6191521;23;20320;-81
2021/05/26 09:17:33;;;;;;;;;;;13.00;99.90;;;;;;6190690;23;20317;-80
2021/05/26 09:20:11;;;;;;;;;;;13.00;99.90;;;;;;6190224;23;19920;-81
2021/05/26 09:25:36;;;;;;;;;;;13.00;99.90;;;;;;6207685;22;19927;-80
2021/05/26 09:28:18;;;;;;;;;;;13.00;99.90;;;;;;6190200;23;19930;-80
2021/05/26 09:30:50;;;;;;;;;;;13.00;99.90;;;;;;6189875;23;19919;-80
2021/05/26 09:33:41;;;;;;;;;;;13.10;99.90;;;;;;6189915;23;19948;-81
2021/05/26 09:36:13;;;;;;;;;;;13.10;99.90;;;;;;6240035;23;19923;-79
2021/05/26 09:38:42;;;;;;;;;;;13.10;99.90;;;;;;6239849;23;19920;-81
2021/05/26 09:44:10;;;;;;;;;;;13.20;99.90;;;;;;6212833;22;19924;-81
2021/05/26 09:46:45;;;;;;;;;;;13.20;99.90;;;;;;6190809;23;19955;-81
2021/05/26 09:49:18;;;;;;;;;;;13.20;99.90;;;;;;6190038;23;19955;-80
2021/05/26 09:51:46;;;;;;;;;;;13.20;99.90;;;;;;6190123;23;19924;-80
2021/05/26 09:54:22;;;;;;;;;;;13.10;99.90;;;;;;6189849;23;19942;-81
2021/05/26 09:57:05;;;;;;;;;;;13.10;99.90;;;;;;6189734;23;19920;-79
2021/05/26 09:59:34;;;;;;;;;;;13.10;99.90;;;;;;6189900;23;19920;-80
2021/05/26 10:02:06;;;;;;;;;;;13.20;99.90;;;;;;6190413;23;19962;-80
2021/05/26 10:04:41;;;;;;;;;;;13.20;99.90;;;;;;6165517;23;20294;-81
2021/05/26 10:07:27;;;;;;;;;;;13.20;99.90;;;;;;6194096;23;19927;-81
2021/05/26 10:09:55;;;;;;;;;;;13.20;99.90;;;;;;6166119;23;19930;-80
2021/05/26 10:12:35;;;;;;;;;;;13.20;99.90;;;;;;6168254;23;19920;-81
2021/05/26 10:15:09;;;;;;;;;;;13.20;99.90;;;;;;6192042;23;19959;-78
2021/05/26 10:17:39;;;;;;;;;;;13.20;99.90;;;;;;6166346;23;20304;-81
2021/05/26 10:20:10;;;;;;;;;;;13.20;99.90;;;;;;6191634;23;19920;-81
2021/05/26 10:22:40;;;;;;;;;;;13.30;99.90;;;;;;6191141;23;19924;-79
2021/05/26 10:25:12;;;;;;;;;;;13.30;99.90;;;;;;6191597;23;20001;-81
2021/05/26 10:27:45;;;;;;;;;;;13.30;99.90;;;;;;6216411;23;19920;-80
2021/05/26 10:30:19;;;;;;;;;;;13.30;99.90;;;;;;6192344;23;19926;-81
2021/05/26 10:33:01;;;;;;;;;;;13.30;99.90;;;;;;6166363;23;19920;-81
2021/05/26 10:35:30;;;;;;;;;;;13.30;99.90;;;;;;6192378;23;20337;-81
2021/05/26 10:38:00;;;;;;;;;;;13.30;99.90;;;;;;6174782;23;19920;-81
2021/05/26 10:40:32;;;;;;;;;;;13.20;99.90;;;;;;6173376;23;19920;-82
2021/05/26 10:43:13;;;;;;;;;;;13.30;99.90;;;;;;6196188;23;20230;-81
2021/05/26 10:45:42;;;;;;;;;;;13.30;99.90;;;;;;6190910;23;19920;-80
2021/05/26 10:48:10;;;;;;;;;;;13.30;99.90;;;;;;6191309;23;19927;-80
2021/05/26 10:50:53;;;;;;;;;;;13.30;99.90;;;;;;6191248;23;19999;-81
2021/05/26 10:53:23;;;;;;;;;;;13.30;99.90;;;;;;6190615;23;19920;-79
2021/05/26 10:55:52;;;;;;;;;;;13.40;99.90;;;;;;6190545;23;19919;-81
2021/05/26 10:58:45;;;;;;;;;;;13.40;99.90;;;;;;6167322;23;19924;-80
2021/05/26 11:01:13;;;;;;;;;;;13.30;99.90;;;;;;6191216;23;19920;-81
2021/05/26 11:03:43;;;;;;;;;;;13.20;99.90;;;;;;6166596;23;19920;-80
2021/05/26 11:06:13;;;;;;;;;;;13.20;99.90;;;;;;6190946;23;19920;-80
2021/05/26 11:11:33;;;;;;;;;;;13.00;99.90;;;;;;6215594;23;19920;-80
2021/05/26 11:14:13;;;;;;;;;;;12.90;99.90;;;;;;6190608;23;19927;-81
2021/05/26 11:16:51;;;;;;;;;;;12.90;99.90;;;;;;6190276;23;19939;-81
2021/05/26 11:19:21;;;;;;;;;;;12.90;99.90;;;;;;6190252;23;20011;-80
2021/05/26 11:21:57;;;;;;;;;;;12.80;99.90;;;;;;6190523;23;19920;-81
2021/05/26 11:24:26;;;;;;;;;;;12.80;99.90;;;;;;6166062;23;19919;-81
2021/05/26 11:26:54;;;;;;;;;;;12.80;99.90;;;;;;6190491;23;19920;-81
2021/05/26 11:29:34;;;;;;;;;;;12.90;99.90;;;;;;6165758;23;19927;-80
2021/05/26 11:35:03;;;;;;;;;;;12.80;99.90;;;;;;6216126;22;19926;-82
2021/05/26 11:37:33;;;;;;;;;;;12.70;99.90;;;;;;6165975;23;20268;-82
2021/05/26 11:40:03;;;;;;;;;;;12.60;99.90;;;;;;6190810;23;20328;-82
2021/05/26 11:48:23;;;;;;;;;;;12.50;99.90;;;;;;6210993;22;19927;-82
2021/05/26 11:50:51;;;;;;;;;;;12.50;99.90;;;;;;6190270;23;19955;-82
2021/05/26 11:53:23;;;;;;;;;;;12.50;99.90;;;;;;6212316;23;19974;-82
2021/05/26 11:55:52;;;;;;;;;;;12.40;99.90;;;;;;6240376;23;19970;-82
2021/05/26 11:58:39;;;;;;;;;;;12.40;99.90;;;;;;6215167;23;19954;-80
2021/05/26 12:01:19;;;;;;;;;;;;;;;;;;;;;
2021/05/26 12:03:52;;;;;;;;;;;12.40;99.90;;;;;;6215008;22;19924;-81
2021/05/26 12:06:22;;;;;;;;;;;12.40;99.90;;;;;;6190629;23;20003;-81
2021/05/26 12:08:55;;;;;;;;;;;12.40;99.90;;;;;;6166518;23;20310;-81
2021/05/26 12:11:23;;;;;;;;;;;12.40;99.90;;;;;;6165509;23;19920;-82
2021/05/26 12:13:50;;;;;;;;;;;12.40;99.90;;;;;;6214800;23;19950;-82
2021/05/26 12:16:20;;;;;;;;;;;12.40;99.90;;;;;;6214934;23;19920;-81
2021/05/26 12:18:49;;;;;;;;;;;12.40;99.90;;;;;;6214916;23;19920;-81
2021/05/26 12:21:17;;;;;;;;;;;12.40;99.90;;;;;;6214883;23;19920;-81
2021/05/26 12:23:45;;;;;;;;;;;12.30;99.90;;;;;;6214920;23;19920;-81
2021/05/26 12:26:19;;;;;;;;;;;12.40;99.90;;;;;;6190736;23;19920;-82
2021/05/26 12:28:47;;;;;;;;;;;12.40;99.90;;;;;;6190320;23;19923;-81
2021/05/26 12:34:11;;;;;;;;;;;12.30;99.90;;;;;;6214770;22;20314;-82
2021/05/26 12:37:24;;;;;;;;;;;;;;;;;;;;;
2021/05/26 12:40:07;;;;;;;;;;;12.30;99.90;;;;;;6195002;23;19920;-82
2021/05/26 12:42:36;;;;;;;;;;;12.30;99.90;;;;;;6165151;23;20341;-82
2021/05/26 12:45:18;;;;;;;;;;;12.30;99.90;;;;;;6189633;23;19995;-82
2021/05/26 12:47:46;;;;;;;;;;;12.30;99.90;;;;;;6165622;23;19924;-81
2021/05/26 12:50:20;;;;;;;;;;;12.30;99.90;;;;;;6189962;23;19950;-82
2021/05/26 12:56:06;;;;;;;;;;;;;;;;;;;;;
2021/05/26 12:58:43;;;;;;;;;;;12.20;99.90;;;;;;6189609;23;19970;-82
2021/05/26 13:04:53;;;;;;;;;;;12.10;99.90;;;;;;6214675;22;20199;-80
2021/05/26 13:07:36;;;;;;;;;;;12.10;99.90;;;;;;6189606;23;19920;-80
2021/05/26 13:10:35;;;;;;;;;;;12.10;99.90;;;;;;6164902;23;20011;-81
2021/05/26 13:13:21;;;;;;;;;;;12.10;99.90;;;;;;6199868;23;19924;-81
2021/05/26 13:18:59;;;;;;;;;;;12.00;99.90;;;;;;6189088;23;19951;-80
2021/05/26 13:21:27;;;;;;;;;;;12.10;99.90;;;;;;6185053;23;20345;-80
2021/05/26 13:23:54;;;;;;;;;;;12.10;99.90;;;;;;6210795;23;19920;-79
2021/05/26 13:26:27;;;;;;;;;;;12.20;99.90;;;;;;6214168;23;19920;-82
2021/05/26 13:29:31;;;;;;;;;;;12.20;99.90;;;;;;6222255;23;20385;-80
2021/05/26 13:32:00;;;;;;;;;;;12.30;99.90;;;;;;6209477;22;20347;-76
2021/05/26 13:34:27;;;;;;;;;;;12.20;99.90;;;;;;6214564;23;19998;-80
2021/05/26 13:36:56;;;;;;;;;;;12.20;99.90;;;;;;6214606;23;20345;-80
2021/05/26 13:39:24;;;;;;;;;;;12.30;99.90;;;;;;6240779;22;19970;-81
2021/05/26 13:41:52;;;;;;;;;;;12.30;99.90;;;;;;6216951;23;19999;-83
2021/05/26 13:44:19;;;;;;;;;;;12.30;99.90;;;;;;6213520;23;19908;-82
2021/05/26 13:46:48;;;;;;;;;;;12.20;99.90;;;;;;6197156;23;19946;-83
2021/05/26 13:49:16;;;;;;;;;;;12.20;99.90;;;;;;6196031;23;19923;-83
2021/05/26 13:51:46;;;;;;;;;;;12.10;99.90;;;;;;6194949;23;19926;-83
2021/05/26 13:54:14;;;;;;;;;;;12.00;99.90;;;;;;6192928;23;20300;-82
2021/05/26 13:56:42;;;;;;;;;;;12.00;99.90;;;;;;6193244;23;19943;-82
2021/05/26 13:59:09;;;;;;;;;;;12.00;99.90;;;;;;6189879;23;19927;-81
2021/05/26 14:01:42;;;;;;;;;;;11.90;99.90;;;;;;6191303;23;20314;-82
2021/05/26 14:04:10;;;;;;;;;;;11.90;99.90;;;;;;6195690;23;20364;-83
2021/05/26 14:06:38;;;;;;;;;;;11.90;99.90;;;;;;6226802;23;20234;-83
2021/05/26 14:09:05;;;;;;;;;;;11.90;99.90;;;;;;6203354;23;19931;-82
2021/05/26 14:14:32;;;;;;;;;;;11.80;99.90;;;;;;6261585;22;20355;-83
2021/05/26 14:16:59;;;;;;;;;;;11.90;99.90;;;;;;6242831;22;19925;-83
2021/05/26 14:19:26;;;;;;;;;;;11.90;99.90;;;;;;6239968;22;19935;-83
2021/05/26 14:25:09;;;;;;;;;;;12.00;99.90;;;;;;6266732;22;19927;-82
2021/05/26 14:27:38;;;;;;;;;;;12.00;99.90;;;;;;6266240;23;19942;-83
2021/05/26 14:34:59;;;;;;;;;;;12.00;99.90;;;;;;6246249;22;19942;-81
2021/05/26 14:48:06;;;;;;;;;;;12.10;99.90;;;;;;6225669;22;19927;-82
2021/05/26 14:50:35;;;;;;;;;;;12.10;99.90;;;;;;6224431;23;19942;-81
2021/05/26 14:55:58;;;;;;;;;;;12.10;99.90;;;;;;6251469;22;19942;-82
2021/05/26 14:58:26;;;;;;;;;;;12.10;99.90;;;;;;6227629;23;19926;-82
2021/05/26 15:00:53;;;;;;;;;;;12.10;99.90;;;;;;6224856;23;19995;-82
2021/05/26 15:03:20;;;;;;;;;;;12.10;99.90;;;;;;6218577;23;20301;-81
2021/05/26 15:05:48;;;;;;;;;;;12.10;99.90;;;;;;6191863;23;20003;-81
2021/05/26 15:08:19;;;;;;;;;;;12.00;99.90;;;;;;6192598;23;19951;-82
2021/05/26 15:10:49;;;;;;;;;;;12.00;99.90;;;;;;6218212;23;19920;-80
2021/05/26 15:13:17;;;;;;;;;;;12.00;99.90;;;;;;6192236;23;20293;-81
2021/05/26 15:15:46;;;;;;;;;;;11.90;99.90;;;;;;6166764;23;20369;-82
2021/05/26 15:18:14;;;;;;;;;;;11.90;99.90;;;;;;6191294;23;19953;-81
2021/05/26 15:20:42;;;;;;;;;;;11.90;99.90;;;;;;6215784;23;19920;-81
2021/05/26 15:23:11;;;;;;;;;;;11.90;99.90;;;;;;6206712;22;19928;-81
2021/05/26 15:25:44;;;;;;;;;;;11.90;99.90;;;;;;6167862;23;19920;-81
2021/05/26 15:28:16;;;;;;;;;;;11.90;99.90;;;;;;6168094;23;19924;-82
2021/05/26 15:30:43;;;;;;;;;;;12.00;99.90;;;;;;6167370;23;19927;-79
2021/05/26 15:33:11;;;;;;;;;;;12.00;99.90;;;;;;6166204;23;20268;-80
2021/05/26 15:35:38;;;;;;;;;;;12.00;99.90;;;;;;6165935;23;19947;-81
2021/05/26 15:38:05;;;;;;;;;;;12.00;99.90;;;;;;6165463;23;20022;-80
2021/05/26 15:40:38;;;;;;;;;;;12.00;99.90;;;;;;6189961;23;19924;-80
2021/05/26 15:43:05;;;;;;;;;;;12.00;99.90;;;;;;6168630;23;19959;-79
2021/05/26 15:45:33;;;;;;;;;;;12.00;99.90;;;;;;6194715;23;19924;-79
2021/05/26 15:48:00;;;;;;;;;;;12.00;99.90;;;;;;6219453;23;19926;-79
2021/05/26 15:50:27;;;;;;;;;;;12.00;99.90;;;;;;6169383;23;19920;-79
2021/05/26 15:52:55;;;;;;;;;;;12.00;99.90;;;;;;6194299;23;20313;-79
2021/05/26 15:55:23;;;;;;;;;;;12.00;99.90;;;;;;6195386;23;19926;-79